SWA3614 KBNA-KRDU
Flight info
| Callsign | SWA3614 |
|---|---|
| Flight time | 1h 3m |
| Altitude | 37000 |
| Route | TAZMO4 BURME MXEEN KPASS ALDAN4 |
| Aircraft | B737/M-VGDW/C |
Departure
| Time | 2026-05-07 00:28 |
|---|---|
| Airport | Nashville International Airport (KBNA) |
Arrival
| Time | 2026-05-07 01:31 |
|---|---|
| Airport | Raleigh-Durham International Airport (KRDU) |
| Time | Latitude | Longitude | Altitude | Speed | Heading |
|---|---|---|---|---|---|
| 2026-05-06 23:47 | 36.12746 | -86.67284 | 571 ft | 0 kts | 186° |
| 2026-05-07 00:16 | 36.12747 | -86.67284 | 587 ft | 2 kts | 186° |
| 2026-05-07 00:16 | 36.12770 | -86.67277 | 572 ft | 4 kts | 219° |
| 2026-05-07 00:16 | 36.12782 | -86.67253 | 575 ft | 4 kts | 275° |
| 2026-05-07 00:17 | 36.12774 | -86.67222 | 568 ft | 4 kts | 298° |
| 2026-05-07 00:17 | 36.12760 | -86.67194 | 571 ft | 3 kts | 309° |
| 2026-05-07 00:17 | 36.12758 | -86.67191 | 571 ft | 1 kts | 310° |
| 2026-05-07 00:21 | 36.12760 | -86.67194 | 571 ft | 1 kts | 310° |
| 2026-05-07 00:21 | 36.12774 | -86.67213 | 568 ft | 5 kts | 312° |
| 2026-05-07 00:21 | 36.12805 | -86.67254 | 568 ft | 8 kts | 313° |
| 2026-05-07 00:21 | 36.12803 | -86.67325 | 572 ft | 9 kts | 233° |
| 2026-05-07 00:22 | 36.12755 | -86.67387 | 572 ft | 11 kts | 221° |
| 2026-05-07 00:22 | 36.12687 | -86.67389 | 577 ft | 11 kts | 143° |
| 2026-05-07 00:22 | 36.12626 | -86.67312 | 578 ft | 14 kts | 133° |
| 2026-05-07 00:22 | 36.12550 | -86.67213 | 574 ft | 18 kts | 133° |
| 2026-05-07 00:23 | 36.12473 | -86.67113 | 574 ft | 16 kts | 133° |
| 2026-05-07 00:23 | 36.12393 | -86.67008 | 573 ft | 17 kts | 134° |
| 2026-05-07 00:23 | 36.12318 | -86.66909 | 571 ft | 14 kts | 127° |
| 2026-05-07 00:23 | 36.12275 | -86.66801 | 575 ft | 14 kts | 108° |
| 2026-05-07 00:24 | 36.12246 | -86.66689 | 574 ft | 14 kts | 108° |
| 2026-05-07 00:24 | 36.12221 | -86.66597 | 570 ft | 10 kts | 112° |
| 2026-05-07 00:24 | 36.12163 | -86.66559 | 572 ft | 11 kts | 185° |
| 2026-05-07 00:24 | 36.12092 | -86.66584 | 578 ft | 10 kts | 199° |
| 2026-05-07 00:25 | 36.12020 | -86.66612 | 581 ft | 13 kts | 198° |
| 2026-05-07 00:25 | 36.11928 | -86.66650 | 578 ft | 15 kts | 198° |
| 2026-05-07 00:25 | 36.11827 | -86.66689 | 581 ft | 15 kts | 198° |
| 2026-05-07 00:25 | 36.11729 | -86.66728 | 585 ft | 15 kts | 198° |
| 2026-05-07 00:26 | 36.11626 | -86.66768 | 586 ft | 16 kts | 198° |
| 2026-05-07 00:26 | 36.11524 | -86.66810 | 589 ft | 15 kts | 198° |
| 2026-05-07 00:26 | 36.11425 | -86.66849 | 591 ft | 15 kts | 197° |
| 2026-05-07 00:26 | 36.11353 | -86.66877 | 591 ft | 10 kts | 194° |
| 2026-05-07 00:27 | 36.11301 | -86.66823 | 590 ft | 10 kts | 107° |
| 2026-05-07 00:27 | 36.11313 | -86.66756 | 590 ft | 8 kts | 42° |
| 2026-05-07 00:27 | 36.11369 | -86.66729 | 590 ft | 10 kts | 16° |
| 2026-05-07 00:27 | 36.11607 | -86.66635 | 589 ft | 79 kts | 18° |
| 2026-05-07 00:28 | 36.12399 | -86.66316 | 624 ft | 154 kts | 18° |
| 2026-05-07 00:28 | 36.13499 | -86.65890 | 1344 ft | 176 kts | 16° |
| 2026-05-07 00:28 | 36.14728 | -86.65414 | 2302 ft | 191 kts | 24° |
| 2026-05-07 00:28 | 36.15863 | -86.64381 | 2882 ft | 223 kts | 48° |
| 2026-05-07 00:29 | 36.16970 | -86.62807 | 3370 ft | 256 kts | 48° |
| 2026-05-07 00:29 | 36.18182 | -86.61098 | 4295 ft | 271 kts | 46° |
| 2026-05-07 00:30 | 36.22072 | -86.55416 | 6684 ft | 304 kts | 69° |
| 2026-05-07 00:30 | 36.22248 | -86.52810 | 6981 ft | 313 kts | 101° |
| 2026-05-07 00:30 | 36.21595 | -86.50224 | 7004 ft | 316 kts | 111° |
| 2026-05-07 00:30 | 36.20885 | -86.47635 | 6993 ft | 317 kts | 110° |
| 2026-05-07 00:31 | 36.20214 | -86.45044 | 6988 ft | 315 kts | 109° |
| 2026-05-07 00:31 | 36.19554 | -86.42468 | 7020 ft | 312 kts | 111° |
| 2026-05-07 00:31 | 36.18749 | -86.40000 | 7448 ft | 311 kts | 116° |
| 2026-05-07 00:31 | 36.17864 | -86.37560 | 8554 ft | 310 kts | 117° |
| 2026-05-07 00:32 | 36.16966 | -86.35116 | 9651 ft | 313 kts | 118° |
| 2026-05-07 00:32 | 36.16063 | -86.32635 | 10533 ft | 323 kts | 119° |
| 2026-05-07 00:32 | 36.15123 | -86.30021 | 11183 ft | 339 kts | 118° |
| 2026-05-07 00:32 | 36.14146 | -86.27301 | 11948 ft | 350 kts | 119° |
| 2026-05-07 00:33 | 36.13152 | -86.24513 | 12837 ft | 357 kts | 120° |
| 2026-05-07 00:33 | 36.12138 | -86.21667 | 13634 ft | 368 kts | 120° |
| 2026-05-07 00:33 | 36.11102 | -86.18741 | 14431 ft | 374 kts | 120° |
| 2026-05-07 00:33 | 36.10405 | -86.16771 | 14946 ft | 379 kts | 121° |
| 2026-05-07 00:34 | 36.09321 | -86.13717 | 15697 ft | 388 kts | 121° |
| 2026-05-07 00:34 | 36.08235 | -86.10668 | 16427 ft | 397 kts | 121° |
| 2026-05-07 00:34 | 36.07167 | -86.07467 | 17124 ft | 412 kts | 113° |
| 2026-05-07 00:34 | 36.06708 | -86.03886 | 17879 ft | 428 kts | 99° |
| 2026-05-07 00:35 | 36.06486 | -86.00180 | 18562 ft | 437 kts | 97° |
| 2026-05-07 00:35 | 36.06286 | -85.96399 | 19294 ft | 441 kts | 97° |
| 2026-05-07 00:35 | 36.06069 | -85.92616 | 20147 ft | 441 kts | 98° |
| 2026-05-07 00:35 | 36.05826 | -85.88827 | 20994 ft | 443 kts | 98° |
| 2026-05-07 00:36 | 36.05561 | -85.85020 | 21747 ft | 447 kts | 98° |
| 2026-05-07 00:36 | 36.05285 | -85.81173 | 22480 ft | 451 kts | 98° |
| 2026-05-07 00:36 | 36.05008 | -85.77298 | 23214 ft | 455 kts | 98° |
| 2026-05-07 00:36 | 36.04731 | -85.73385 | 23911 ft | 459 kts | 98° |
| 2026-05-07 00:37 | 36.04453 | -85.69432 | 24461 ft | 465 kts | 98° |
| 2026-05-07 00:37 | 36.04172 | -85.65429 | 24978 ft | 472 kts | 98° |
| 2026-05-07 00:37 | 36.03885 | -85.61360 | 25512 ft | 477 kts | 99° |
| 2026-05-07 00:37 | 36.03595 | -85.57249 | 26037 ft | 483 kts | 99° |
| 2026-05-07 00:38 | 36.03299 | -85.53093 | 26556 ft | 489 kts | 99° |
| 2026-05-07 00:38 | 36.02998 | -85.48888 | 27081 ft | 494 kts | 99° |
| 2026-05-07 00:38 | 36.02692 | -85.44628 | 27593 ft | 499 kts | 99° |
| 2026-05-07 00:38 | 36.02382 | -85.40335 | 28105 ft | 504 kts | 99° |
| 2026-05-07 00:39 | 36.02067 | -85.36000 | 28647 ft | 509 kts | 99° |
| 2026-05-07 00:39 | 36.01749 | -85.31638 | 29139 ft | 514 kts | 99° |
| 2026-05-07 00:39 | 36.01423 | -85.27206 | 29624 ft | 519 kts | 100° |
| 2026-05-07 00:39 | 36.01095 | -85.22749 | 30097 ft | 524 kts | 100° |
| 2026-05-07 00:40 | 36.00762 | -85.18251 | 30496 ft | 528 kts | 100° |
| 2026-05-07 00:40 | 36.00425 | -85.13707 | 30933 ft | 531 kts | 100° |
| 2026-05-07 00:40 | 36.00084 | -85.09144 | 31354 ft | 534 kts | 101° |
| 2026-05-07 00:40 | 35.99989 | -85.04592 | 31678 ft | 545 kts | 86° |
| 2026-05-07 00:41 | 36.00800 | -85.00003 | 32163 ft | 546 kts | 72° |
| 2026-05-07 00:41 | 36.01952 | -84.95551 | 32709 ft | 545 kts | 71° |
| 2026-05-07 00:41 | 36.03174 | -84.91112 | 33130 ft | 546 kts | 70° |
| 2026-05-07 00:41 | 36.04412 | -84.86668 | 33525 ft | 548 kts | 70° |
| 2026-05-07 00:42 | 36.05637 | -84.82207 | 33971 ft | 549 kts | 71° |
| 2026-05-07 00:42 | 36.06839 | -84.77730 | 34391 ft | 548 kts | 71° |
| 2026-05-07 00:42 | 36.08014 | -84.73260 | 34795 ft | 547 kts | 71° |
| 2026-05-07 00:42 | 36.09175 | -84.68778 | 35154 ft | 548 kts | 71° |
| 2026-05-07 00:43 | 36.10328 | -84.64284 | 35492 ft | 548 kts | 71° |
| 2026-05-07 00:43 | 36.11473 | -84.59807 | 35932 ft | 546 kts | 71° |
| 2026-05-07 00:43 | 36.12615 | -84.55337 | 36358 ft | 545 kts | 70° |
| 2026-05-07 00:43 | 36.13767 | -84.50843 | 36542 ft | 550 kts | 70° |
| 2026-05-07 00:44 | 36.14907 | -84.46400 | 36674 ft | 555 kts | 70° |
| 2026-05-07 00:44 | 36.16075 | -84.41847 | 37019 ft | 555 kts | 70° |
| 2026-05-07 00:44 | 36.18431 | -84.32606 | 37003 ft | 570 kts | 70° |
| 2026-05-07 00:45 | 36.20837 | -84.23134 | 36999 ft | 580 kts | 70° |
| 2026-05-07 00:45 | 36.23242 | -84.13612 | 37000 ft | 579 kts | 70° |
| 2026-05-07 00:46 | 36.25639 | -84.04072 | 36996 ft | 579 kts | 71° |
| 2026-05-07 00:46 | 36.28029 | -83.94545 | 36987 ft | 579 kts | 70° |
| 2026-05-07 00:47 | 36.30411 | -83.85027 | 36986 ft | 577 kts | 70° |
| 2026-05-07 00:47 | 36.32780 | -83.75524 | 36958 ft | 576 kts | 70° |
| 2026-05-07 00:48 | 36.35135 | -83.66045 | 36964 ft | 576 kts | 70° |
| 2026-05-07 00:48 | 36.37482 | -83.56550 | 36953 ft | 575 kts | 70° |
| 2026-05-07 00:49 | 36.39814 | -83.47072 | 36965 ft | 574 kts | 70° |
| 2026-05-07 00:49 | 36.42129 | -83.37650 | 36998 ft | 577 kts | 70° |
| 2026-05-07 00:50 | 36.44488 | -83.28018 | 36982 ft | 586 kts | 70° |
| 2026-05-07 00:50 | 36.46816 | -83.18328 | 36960 ft | 585 kts | 72° |
| 2026-05-07 00:51 | 36.48454 | -83.08418 | 36950 ft | 586 kts | 79° |
| 2026-05-07 00:51 | 36.49699 | -82.98402 | 36946 ft | 586 kts | 81° |
| 2026-05-07 00:52 | 36.50966 | -82.88394 | 36942 ft | 586 kts | 79° |
| 2026-05-07 00:52 | 36.52312 | -82.78414 | 36939 ft | 585 kts | 79° |
| 2026-05-07 00:53 | 36.53681 | -82.68451 | 36944 ft | 585 kts | 79° |
| 2026-05-07 00:53 | 36.55037 | -82.58483 | 36939 ft | 585 kts | 79° |
| 2026-05-07 00:54 | 36.56379 | -82.48510 | 36934 ft | 585 kts | 78° |
| 2026-05-07 00:54 | 36.58183 | -82.38667 | 36950 ft | 583 kts | 72° |
| 2026-05-07 00:55 | 36.60292 | -82.28939 | 36958 ft | 582 kts | 71° |
| 2026-05-07 00:55 | 36.62372 | -82.19200 | 36982 ft | 582 kts | 72° |
| 2026-05-07 00:56 | 36.64370 | -82.09428 | 36990 ft | 583 kts | 73° |
| 2026-05-07 00:56 | 36.66331 | -81.99639 | 36980 ft | 582 kts | 73° |
| 2026-05-07 00:57 | 36.68282 | -81.89861 | 36999 ft | 582 kts | 73° |
| 2026-05-07 00:57 | 36.70236 | -81.80059 | 36972 ft | 583 kts | 73° |
| 2026-05-07 00:58 | 36.72162 | -81.70377 | 36961 ft | 583 kts | 73° |
| 2026-05-07 00:58 | 36.74107 | -81.60544 | 36946 ft | 583 kts | 73° |
| 2026-05-07 00:59 | 36.77000 | -81.45809 | 37000 ft | 583 kts | 73° |
| 2026-05-07 01:00 | 36.78911 | -81.36045 | 37002 ft | 583 kts | 73° |
| 2026-05-07 01:00 | 36.80822 | -81.26218 | 37011 ft | 583 kts | 73° |
| 2026-05-07 01:01 | 36.82727 | -81.16387 | 36994 ft | 582 kts | 73° |
| 2026-05-07 01:01 | 36.84620 | -81.06569 | 36564 ft | 580 kts | 73° |
| 2026-05-07 01:01 | 36.85559 | -81.01677 | 35944 ft | 579 kts | 73° |
| 2026-05-07 01:02 | 36.86495 | -80.96792 | 35290 ft | 579 kts | 73° |
| 2026-05-07 01:02 | 36.87411 | -80.91996 | 34595 ft | 579 kts | 74° |
| 2026-05-07 01:02 | 36.88348 | -80.87084 | 33825 ft | 581 kts | 74° |
| 2026-05-07 01:02 | 36.89274 | -80.82231 | 32950 ft | 582 kts | 75° |
| 2026-05-07 01:03 | 36.90209 | -80.77313 | 32115 ft | 580 kts | 75° |
| 2026-05-07 01:03 | 36.91130 | -80.72439 | 31241 ft | 573 kts | 76° |
| 2026-05-07 01:03 | 36.92038 | -80.67620 | 30371 ft | 567 kts | 76° |
| 2026-05-07 01:03 | 36.92939 | -80.62834 | 29300 ft | 562 kts | 77° |
| 2026-05-07 01:04 | 36.93826 | -80.58107 | 28235 ft | 556 kts | 76° |
| 2026-05-07 01:04 | 36.94698 | -80.53458 | 27550 ft | 543 kts | 76° |
| 2026-05-07 01:04 | 36.95551 | -80.48903 | 27111 ft | 534 kts | 76° |
| 2026-05-07 01:04 | 36.96450 | -80.44367 | 26520 ft | 537 kts | 74° |
| 2026-05-07 01:05 | 36.97430 | -80.39775 | 26114 ft | 527 kts | 73° |
| 2026-05-07 01:05 | 36.98373 | -80.35464 | 25732 ft | 524 kts | 73° |
| 2026-05-07 01:05 | 36.99323 | -80.31109 | 25332 ft | 521 kts | 73° |
| 2026-05-07 01:05 | 37.00261 | -80.26748 | 25007 ft | 518 kts | 73° |
| 2026-05-07 01:06 | 37.01184 | -80.22402 | 24940 ft | 511 kts | 74° |
| 2026-05-07 01:06 | 37.02082 | -80.18137 | 24211 ft | 504 kts | 73° |
| 2026-05-07 01:06 | 37.02956 | -80.13967 | 23766 ft | 487 kts | 73° |
| 2026-05-07 01:06 | 37.03798 | -80.09943 | 23354 ft | 469 kts | 73° |
| 2026-05-07 01:07 | 37.04246 | -80.05959 | 22920 ft | 457 kts | 92° |
| 2026-05-07 01:07 | 37.03844 | -80.02065 | 22596 ft | 448 kts | 109° |
| 2026-05-07 01:07 | 37.02749 | -79.98452 | 22265 ft | 440 kts | 119° |
| 2026-05-07 01:07 | 37.01497 | -79.94976 | 21933 ft | 438 kts | 120° |
| 2026-05-07 01:08 | 37.00215 | -79.91520 | 21588 ft | 437 kts | 120° |
| 2026-05-07 01:08 | 36.98937 | -79.88079 | 21258 ft | 436 kts | 120° |
| 2026-05-07 01:08 | 36.97671 | -79.84637 | 20932 ft | 434 kts | 120° |
| 2026-05-07 01:08 | 36.96422 | -79.81207 | 20602 ft | 433 kts | 119° |
| 2026-05-07 01:09 | 36.95183 | -79.77775 | 20273 ft | 432 kts | 119° |
| 2026-05-07 01:09 | 36.93951 | -79.74350 | 19955 ft | 431 kts | 118° |
| 2026-05-07 01:09 | 36.92727 | -79.70941 | 19630 ft | 430 kts | 118° |
| 2026-05-07 01:09 | 36.91504 | -79.67534 | 19312 ft | 429 kts | 118° |
| 2026-05-07 01:10 | 36.90698 | -79.65291 | 19097 ft | 428 kts | 118° |
| 2026-05-07 01:10 | 36.89070 | -79.60766 | 18667 ft | 425 kts | 118° |
| 2026-05-07 01:10 | 36.87863 | -79.57415 | 18340 ft | 421 kts | 118° |
| 2026-05-07 01:10 | 36.86667 | -79.54099 | 17997 ft | 416 kts | 118° |
| 2026-05-07 01:11 | 36.85488 | -79.50831 | 17648 ft | 409 kts | 118° |
| 2026-05-07 01:11 | 36.84325 | -79.47614 | 17319 ft | 404 kts | 118° |
| 2026-05-07 01:11 | 36.83177 | -79.44442 | 17044 ft | 399 kts | 118° |
| 2026-05-07 01:11 | 36.82039 | -79.41304 | 16751 ft | 395 kts | 118° |
| 2026-05-07 01:12 | 36.80904 | -79.38182 | 16472 ft | 397 kts | 118° |
| 2026-05-07 01:12 | 36.79753 | -79.35022 | 16185 ft | 403 kts | 118° |
| 2026-05-07 01:12 | 36.78589 | -79.31826 | 15879 ft | 405 kts | 118° |
| 2026-05-07 01:12 | 36.77426 | -79.28631 | 15557 ft | 403 kts | 118° |
| 2026-05-07 01:13 | 36.76271 | -79.25455 | 15258 ft | 401 kts | 118° |
| 2026-05-07 01:13 | 36.75127 | -79.22314 | 14956 ft | 396 kts | 118° |
| 2026-05-07 01:13 | 36.73997 | -79.19214 | 14630 ft | 389 kts | 118° |
| 2026-05-07 01:13 | 36.72881 | -79.16159 | 14347 ft | 384 kts | 118° |
| 2026-05-07 01:14 | 36.71793 | -79.13183 | 14064 ft | 381 kts | 118° |
| 2026-05-07 01:14 | 36.70684 | -79.10156 | 13787 ft | 379 kts | 118° |
| 2026-05-07 01:14 | 36.69593 | -79.07181 | 13478 ft | 376 kts | 118° |
| 2026-05-07 01:14 | 36.68868 | -79.05226 | 13266 ft | 374 kts | 120° |
| 2026-05-07 01:15 | 36.67363 | -79.02665 | 12945 ft | 362 kts | 143° |
| 2026-05-07 01:15 | 36.65283 | -79.00924 | 12716 ft | 363 kts | 161° |
| 2026-05-07 01:15 | 36.62882 | -78.99970 | 12455 ft | 365 kts | 172° |
| 2026-05-07 01:15 | 36.60401 | -78.99261 | 12168 ft | 366 kts | 173° |
| 2026-05-07 01:16 | 36.57923 | -78.98590 | 11871 ft | 362 kts | 173° |
| 2026-05-07 01:16 | 36.55472 | -78.97918 | 11604 ft | 359 kts | 173° |
| 2026-05-07 01:16 | 36.53048 | -78.97239 | 11336 ft | 356 kts | 173° |
| 2026-05-07 01:16 | 36.50642 | -78.96552 | 11074 ft | 353 kts | 173° |
| 2026-05-07 01:17 | 36.48254 | -78.95862 | 10814 ft | 351 kts | 172° |
| 2026-05-07 01:17 | 36.45883 | -78.95176 | 10538 ft | 350 kts | 172° |
| 2026-05-07 01:17 | 36.43529 | -78.94493 | 10275 ft | 342 kts | 173° |
| 2026-05-07 01:17 | 36.41271 | -78.93824 | 10011 ft | 324 kts | 171° |
| 2026-05-07 01:18 | 36.39255 | -78.92652 | 9749 ft | 319 kts | 149° |
| 2026-05-07 01:18 | 36.37578 | -78.90729 | 9501 ft | 309 kts | 140° |
| 2026-05-07 01:18 | 36.36179 | -78.88899 | 9274 ft | 305 kts | 139° |
| 2026-05-07 01:18 | 36.34717 | -78.86981 | 9052 ft | 305 kts | 139° |
| 2026-05-07 01:19 | 36.33213 | -78.85039 | 8817 ft | 305 kts | 140° |
| 2026-05-07 01:19 | 36.31764 | -78.83187 | 8585 ft | 306 kts | 140° |
| 2026-05-07 01:19 | 36.30195 | -78.81190 | 8330 ft | 302 kts | 140° |
| 2026-05-07 01:19 | 36.28702 | -78.79307 | 8076 ft | 291 kts | 140° |
| 2026-05-07 01:20 | 36.27347 | -78.77604 | 7811 ft | 282 kts | 140° |
| 2026-05-07 01:20 | 36.25985 | -78.75880 | 7512 ft | 274 kts | 140° |
| 2026-05-07 01:20 | 36.24776 | -78.74346 | 7236 ft | 268 kts | 140° |
| 2026-05-07 01:20 | 36.23492 | -78.72717 | 6962 ft | 261 kts | 140° |
| 2026-05-07 01:21 | 36.22234 | -78.71122 | 6691 ft | 255 kts | 140° |
| 2026-05-07 01:21 | 36.21005 | -78.69566 | 6406 ft | 251 kts | 140° |
| 2026-05-07 01:21 | 36.19785 | -78.68022 | 6143 ft | 251 kts | 139° |
| 2026-05-07 01:21 | 36.18646 | -78.66368 | 6025 ft | 254 kts | 135° |
| 2026-05-07 01:22 | 36.17422 | -78.64510 | 6002 ft | 257 kts | 134° |
| 2026-05-07 01:22 | 36.16320 | -78.62835 | 5990 ft | 257 kts | 135° |
| 2026-05-07 01:22 | 36.15271 | -78.61232 | 5963 ft | 254 kts | 135° |
| 2026-05-07 01:22 | 36.14188 | -78.59559 | 5906 ft | 245 kts | 135° |
| 2026-05-07 01:23 | 36.13115 | -78.57926 | 5590 ft | 243 kts | 141° |
| 2026-05-07 01:23 | 36.11663 | -78.56464 | 5268 ft | 235 kts | 153° |
| 2026-05-07 01:23 | 36.10233 | -78.55740 | 5058 ft | 210 kts | 184° |
| 2026-05-07 01:23 | 36.08857 | -78.55712 | 5014 ft | 189 kts | 189° |
| 2026-05-07 01:24 | 36.07764 | -78.55743 | 5004 ft | 177 kts | 190° |
| 2026-05-07 01:24 | 36.06437 | -78.55791 | 5009 ft | 179 kts | 193° |
| 2026-05-07 01:24 | 36.05447 | -78.56288 | 4999 ft | 157 kts | 230° |
| 2026-05-07 01:24 | 36.04534 | -78.57408 | 4866 ft | 162 kts | 229° |
| 2026-05-07 01:25 | 36.03857 | -78.58220 | 4697 ft | 162 kts | 230° |
| 2026-05-07 01:25 | 36.03062 | -78.59186 | 4494 ft | 158 kts | 230° |
| 2026-05-07 01:25 | 36.02231 | -78.60207 | 4264 ft | 156 kts | 230° |
| 2026-05-07 01:25 | 36.01522 | -78.61083 | 4099 ft | 155 kts | 229° |
| 2026-05-07 01:26 | 36.00757 | -78.62029 | 3884 ft | 156 kts | 228° |
| 2026-05-07 01:26 | 35.99855 | -78.63146 | 3643 ft | 157 kts | 228° |
| 2026-05-07 01:26 | 35.99110 | -78.64068 | 3454 ft | 157 kts | 228° |
| 2026-05-07 01:26 | 35.98449 | -78.64887 | 3286 ft | 155 kts | 228° |
| 2026-05-07 01:27 | 35.97683 | -78.65834 | 3072 ft | 157 kts | 227° |
| 2026-05-07 01:27 | 35.96917 | -78.66784 | 2851 ft | 152 kts | 227° |
| 2026-05-07 01:27 | 35.96160 | -78.67720 | 2661 ft | 148 kts | 226° |
| 2026-05-07 01:27 | 35.95457 | -78.68593 | 2487 ft | 151 kts | 226° |
| 2026-05-07 01:28 | 35.94725 | -78.69499 | 2285 ft | 147 kts | 226° |
| 2026-05-07 01:28 | 35.94045 | -78.70340 | 2078 ft | 131 kts | 226° |
| 2026-05-07 01:28 | 35.93435 | -78.71097 | 1904 ft | 118 kts | 226° |
| 2026-05-07 01:28 | 35.92833 | -78.71844 | 1777 ft | 119 kts | 225° |
| 2026-05-07 01:29 | 35.92282 | -78.72526 | 1622 ft | 121 kts | 226° |
| 2026-05-07 01:29 | 35.91685 | -78.73267 | 1462 ft | 124 kts | 225° |
| 2026-05-07 01:29 | 35.91049 | -78.74055 | 1288 ft | 124 kts | 225° |
| 2026-05-07 01:29 | 35.90471 | -78.74775 | 1134 ft | 128 kts | 225° |
| 2026-05-07 01:30 | 35.89827 | -78.75565 | 990 ft | 135 kts | 224° |
| 2026-05-07 01:30 | 35.89062 | -78.76532 | 808 ft | 136 kts | 223° |
| 2026-05-07 01:30 | 35.88497 | -78.77240 | 632 ft | 139 kts | 222° |
| 2026-05-07 01:30 | 35.87812 | -78.78075 | 439 ft | 134 kts | 225° |
| 2026-05-07 01:31 | 35.87220 | -78.78806 | 419 ft | 110 kts | 225° |
| 2026-05-07 01:31 | 35.86798 | -78.79320 | 428 ft | 59 kts | 225° |
| 2026-05-07 01:31 | 35.86593 | -78.79575 | 435 ft | 29 kts | 224° |
| 2026-05-07 01:31 | 35.86509 | -78.79720 | 438 ft | 13 kts | 268° |
| 2026-05-07 01:32 | 35.86547 | -78.79785 | 429 ft | 0 kts | 350° |
| 2026-05-07 01:33 | 35.86549 | -78.79784 | 430 ft | 1 kts | 1° |
| 2026-05-07 01:33 | 35.86579 | -78.79772 | 431 ft | 8 kts | 29° |
| 2026-05-07 01:33 | 35.86639 | -78.79708 | 436 ft | 14 kts | 43° |
| 2026-05-07 01:33 | 35.86709 | -78.79624 | 432 ft | 14 kts | 45° |
| 2026-05-07 01:34 | 35.86776 | -78.79540 | 430 ft | 13 kts | 46° |
| 2026-05-07 01:34 | 35.86839 | -78.79462 | 435 ft | 13 kts | 45° |
| 2026-05-07 01:34 | 35.86903 | -78.79382 | 430 ft | 13 kts | 45° |
| 2026-05-07 01:34 | 35.86967 | -78.79304 | 426 ft | 13 kts | 45° |
| 2026-05-07 01:35 | 35.87028 | -78.79229 | 431 ft | 12 kts | 45° |
| 2026-05-07 01:35 | 35.87088 | -78.79154 | 430 ft | 12 kts | 45° |
| 2026-05-07 01:35 | 35.87147 | -78.79082 | 423 ft | 12 kts | 45° |
| 2026-05-07 01:35 | 35.87204 | -78.79011 | 429 ft | 11 kts | 45° |
| 2026-05-07 01:36 | 35.87260 | -78.78942 | 432 ft | 11 kts | 45° |
| 2026-05-07 01:36 | 35.87315 | -78.78878 | 429 ft | 11 kts | 35° |
| 2026-05-07 01:36 | 35.87372 | -78.78873 | 430 ft | 5 kts | 350° |
| 2026-05-07 01:36 | 35.87389 | -78.78879 | 425 ft | 1 kts | 328° |
| 2026-05-07 01:37 | 35.87396 | -78.78888 | 429 ft | 2 kts | 315° |
| 2026-05-07 01:37 | 35.87411 | -78.78902 | 431 ft | 3 kts | 330° |
| 2026-05-07 01:37 | 35.87428 | -78.78911 | 434 ft | 2 kts | 336° |
| 2026-05-07 01:37 | 35.87430 | -78.78912 | 434 ft | 0 kts | 336° |